地図

経路データ

SID SEASON NUMBER BASIN SUBBASIN NAME ISO_TIME NATURE LAT LON WMO_WIND WMO_PRES WMO_AGENCY TRACK_TYPE DIST2LAND LANDFALL IFLAG USA_AGENCY USA_ATCF_ID USA_LAT USA_LON USA_RECORD USA_STATUS USA_WIND USA_PRES USA_SSHS USA_R34_NE USA_R34_SE USA_R34_SW USA_R34_NW USA_R50_NE USA_R50_SE USA_R50_SW USA_R50_NW USA_R64_NE USA_R64_SE USA_R64_SW USA_R64_NW USA_POCI USA_ROCI USA_RMW USA_EYE TOKYO_LAT TOKYO_LON TOKYO_GRADE TOKYO_WIND TOKYO_PRES TOKYO_R50_DIR TOKYO_R50_LONG TOKYO_R50_SHORT TOKYO_R30_DIR TOKYO_R30_LONG TOKYO_R30_SHORT TOKYO_LAND CMA_LAT CMA_LON CMA_CAT CMA_WIND CMA_PRES HKO_LAT HKO_LON HKO_CAT HKO_WIND HKO_PRES NEWDELHI_LAT NEWDELHI_LON NEWDELHI_GRADE NEWDELHI_WIND NEWDELHI_PRES NEWDELHI_CI NEWDELHI_DP NEWDELHI_POCI REUNION_LAT REUNION_LON REUNION_TYPE REUNION_WIND REUNION_PRES REUNION_TNUM REUNION_CI REUNION_RMW REUNION_R34_NE REUNION_R34_SE REUNION_R34_SW REUNION_R34_NW REUNION_R50_NE REUNION_R50_SE REUNION_R50_SW REUNION_R50_NW REUNION_R64_NE REUNION_R64_SE REUNION_R64_SW REUNION_R64_NW BOM_LAT BOM_LON BOM_TYPE BOM_WIND BOM_PRES BOM_TNUM BOM_CI BOM_RMW BOM_R34_NE BOM_R34_SE BOM_R34_SW BOM_R34_NW BOM_R50_NE BOM_R50_SE BOM_R50_SW BOM_R50_NW BOM_R64_NE BOM_R64_SE BOM_R64_SW BOM_R64_NW BOM_ROCI BOM_POCI BOM_EYE BOM_POS_METHOD BOM_PRES_METHOD NADI_LAT NADI_LON NADI_CAT NADI_WIND NADI_PRES WELLINGTON_LAT WELLINGTON_LON WELLINGTON_WIND WELLINGTON_PRES DS824_LAT DS824_LON DS824_STAGE DS824_WIND DS824_PRES TD9636_LAT TD9636_LON TD9636_STAGE TD9636_WIND TD9636_PRES TD9635_LAT TD9635_LON TD9635_WIND TD9635_PRES TD9635_ROCI NEUMANN_LAT NEUMANN_LON NEUMANN_CLASS NEUMANN_WIND NEUMANN_PRES MLC_LAT MLC_LON MLC_CLASS MLC_WIND MLC_PRES USA_GUST BOM_GUST BOM_GUST_PER REUNION_GUST REUNION_GUST_PER USA_SEAHGT USA_SEARAD_NE USA_SEARAD_SE USA_SEARAD_SW USA_SEARAD_NW STORM_SPEED STORM_DIR
1987232N07173 1987 62 WP MM ED 1987-08-20 06:00:00 NR 7.00000 173.000 main 2193 2144 O_________O___ jtwc_wp WP121987 7.00000 173.000 15 -1 7.00000 173.000 1 15 24 285
1987232N07173 1987 62 WP MM ED 1987-08-20 09:00:00 NR 7.29944 171.840 main 2141 2104 P_________P___ WP121987 7.29294 171.858 15 -1 7.30595 171.822 1 15 24 285
1987232N07173 1987 62 WP MM ED 1987-08-20 12:00:00 NR 7.60000 170.700 main 2102 2071 O_________O___ jtwc_wp WP121987 7.60000 170.700 15 -1 7.60000 170.700 1 15 23 285
1987232N07173 1987 62 WP MM ED 1987-08-20 15:00:00 NR 7.89821 169.608 main 2070 2046 P_________P___ WP121987 7.92251 169.540 15 -1 7.87392 169.677 1 16 21 285
1987232N07173 1987 62 WP MM ED 1987-08-20 18:00:00 NR 8.16014 168.619 main 2051 2025 O_________P___ jtwc_wp WP121987 8.20000 168.500 15 -1 8.12029 168.738 1 17 19 284
1987232N07173 1987 62 WP MM ED 1987-08-20 21:00:00 NR 8.35548 167.787 main 2036 2014 P_________P___ WP121987 8.37937 167.720 17 -1 8.33159 167.855 1 18 16 282
1987232N07173 1987 62 WP MM ED 1987-08-21 00:00:00 NR 8.50000 167.000 main 2014 1996 O_________O___ jtwc_wp WP121987 8.50000 167.000 20 -1 8.50000 167.000 1 20 17 278
1987232N07173 1987 62 WP MM ED 1987-08-21 03:00:00 NR 8.60214 166.105 main 1992 1961 P_________P___ WP121987 8.61504 166.107 20 -1 8.58924 166.103 1 20 18 276
1987232N07173 1987 62 WP MM ED 1987-08-21 06:00:00 NR 8.67100 165.216 main 1955 1906 O_________P___ jtwc_wp WP121987 8.70000 165.200 20 -1 8.64200 165.231 1 20 17 274
1987232N07173 1987 62 WP MM ED 1987-08-21 09:00:00 NR 8.71678 164.382 main 1906 1860 P_________P___ WP121987 8.73482 164.370 20 -1 8.69874 164.394 1 20 17 276
1987232N07173 1987 62 WP MM ED 1987-08-21 12:00:00 NR 8.83333 163.511 main 1853 1822 O__O______O___ jtwc_wp WP121987 8.80000 163.600 20 -1 9.10000 162.800 TD 25 1004 8.80000 163.600 1 20 17 282
1987232N07173 1987 62 WP MM ED 1987-08-21 15:00:00 NR 9.05663 162.725 main 1824 1795 P__P______P___ WP121987 8.96228 162.885 22 -1 9.36020 162.195 TD 25 1004 8.99920 162.829 1 21 16 288
1987232N07173 1987 62 WP MM ED 1987-08-21 18:00:00 NR 9.32617 162.001 main 1795 1775 O__O______P___ jtwc_wp WP121987 9.20000 162.200 25 -1 9.60000 161.600 TD 25 1004 9.24696 162.103 1 22 15 292
1987232N07173 1987 62 WP MM ED 1987-08-21 21:00:00 NR 9.60706 161.310 main 1775 1762 P__P______P___ WP121987 9.49249 161.478 25 -1 9.80744 161.027 TD 25 1004 9.52124 161.426 1 23 14 293
1987232N07173 1987 62 WP MM ED 1987-08-22 00:00:00 NR 9.86667 160.700 main 1765 1751 O__O______O___ jtwc_wp WP121987 9.80000 160.800 25 -1 10.0000 160.500 TD 25 1004 9.80000 160.800 1 25 12 293
1987232N07173 1987 62 WP MM ED 1987-08-22 03:00:00 NR 10.0968 160.150 main 1755 1741 P__P______P___ WP121987 10.0573 160.220 25 -1 10.1999 160.027 TD 25 1004 10.0333 160.204 1 26 11 294
1987232N07173 1987 62 WP MM ED 1987-08-22 06:00:00 NR 10.3231 159.653 main 1745 1736 O__O______P___ jtwc_wp WP121987 10.3000 159.700 25 -1 10.4000 159.600 TD 25 1004 10.2694 159.660 1 27 11 296
1987232N07173 1987 62 WP MM ED 1987-08-22 09:00:00 NR 10.5519 159.192 main 1746 1735 P__P______P___ WP121987 10.5499 159.192 27 -1 10.5848 159.222 TD 25 1004 10.5209 159.160 1 28 10 298
1987232N07173 1987 62 WP MM ED 1987-08-22 12:00:00 NR 10.8000 158.733 main 1739 1734 O__O______O___ jtwc_wp WP121987 10.8000 158.700 30 -1 10.8000 158.800 TD 25 1004 10.8000 158.700 1 30 11 298
1987232N07173 1987 62 WP MM ED 1987-08-22 15:00:00 NR 11.0745 158.207 main 1744 1739 P__P______P___ WP121987 11.0200 158.170 30 -1 11.0701 158.222 TD 25 1004 11.1333 158.228 1 30 12 301
1987232N07173 1987 62 WP MM ED 1987-08-22 18:00:00 NR 11.3972 157.707 main 1750 1750 O__O______P___ jtwc_wp WP121987 11.3000 157.700 30 -1 11.4000 157.600 TD 25 1004 11.4924 157.795 1 30 11 309
1987232N07173 1987 62 WP MM ED 1987-08-22 21:00:00 NR 11.7931 157.314 main 1772 1772 P__P______P___ WP121987 11.7349 157.355 30 -1 11.7851 157.030 TD 25 1004 11.8553 157.415 1 30 10 321
1987232N07173 1987 62 WP MM ED 1987-08-23 00:00:00 NR 12.2000 157.033 main 1800 1800 O__O______O___ jtwc_wp WP121987 12.2000 157.100 30 -1 12.2000 156.500 TD 25 1004 12.2000 157.100 1 30 9 330
1987232N07173 1987 62 WP MM ED 1987-08-23 03:00:00 NR 12.5520 156.865 main 1838 1834 P_________P___ WP121987 12.5875 156.877 27 -1 TD 12.5165 156.852 1 28 7 333
1987232N07173 1987 62 WP MM ED 1987-08-23 06:00:00 NR 12.8548 156.684 main 1861 1857 O_________P___ jtwc_wp WP121987 12.9000 156.700 25 -1 12.8096 156.667 1 27 6 329
1987232N07173 1987 62 WP MM ED 1987-08-23 09:00:00 NR 13.1014 156.529 main 1875 1875 P_________P___ WP121987 13.1300 156.535 25 -1 13.0729 156.524 1 26 5 328
1987232N07173 1987 62 WP MM ED 1987-08-23 12:00:00 NR 13.3000 156.400 main 1892 1892 O_________O___ jtwc_wp WP121987 13.3000 156.400 25 -1 13.3000 156.400 1 25 4 329
1987232N07173 1987 62 WP MM ED 1987-08-23 15:00:00 NR 13.4777 156.294 main 1910 1910 P_________P___ WP121987 13.4575 156.300 22 -1 13.4979 156.289 1 23 4 328
1987232N07173 1987 62 WP MM ED 1987-08-23 18:00:00 NR 13.6298 156.194 main 1917 1917 O_________P___ jtwc_wp WP121987 13.6000 156.200 20 -1 13.6597 156.187 1 22 4 324
1987232N07173 1987 62 WP MM ED 1987-08-23 21:00:00 NR 13.7745 156.070 main 1935 1932 P_________P___ WP121987 13.7575 156.072 20 -1 13.7916 156.067 1 21 4 313
1987232N07173 1987 62 WP MM ED 1987-08-24 00:00:00 NR 13.9000 155.900 main 1939 1936 O_________O___ jtwc_wp WP121987 13.9000 155.900 20 -1 13.9000 155.900 1 20 4 301
1987232N07173 1987 62 WP MM ED 1987-08-24 03:00:00 NR 14.0016 155.679 main 1944 1938 P_________P___ WP121987 14.0150 155.680 22 -1 13.9883 155.678 1 21 5 290
1987232N07173 1987 62 WP MM ED 1987-08-24 06:00:00 NR 14.0786 155.402 main 1946 1938 O_________P___ jtwc_wp WP121987 14.1000 155.400 25 -1 14.0572 155.405 1 22 6 283
1987232N07173 1987 62 WP MM ED 1987-08-24 09:00:00 NR 14.1400 155.079 main 1938 1928 P_________P___ WP121987 14.1574 155.080 25 -1 14.1225 155.078 1 23 7 275
1987232N07173 1987 62 WP MM ED 1987-08-24 12:00:00 NR 14.1444 154.667 main 1928 1925 O_________O___ jtwc_wp WP121987 14.2000 154.700 25 -1 14.2000 154.700 1 25 8 274
1987232N07173 1987 62 WP MM ED 1987-08-24 15:00:00 NR 14.1956 154.258 main 1930 1923 P_________P___ WP121987 14.2274 154.272 25 -1 14.3065 154.291 1 25 8 280
1987232N07173 1987 62 WP MM ED 1987-08-24 18:00:00 NR 14.2917 153.839 main 1931 1929 O_________P___ jtwc_wp WP121987 14.3000 153.800 25 -1 14.4273 153.832 1 25 8 286
1987232N07173 1987 62 WP MM ED 1987-08-24 21:00:00 NR 14.4314 153.421 main 1935 1935 P_________P___ WP121987 14.4773 153.323 25 -1 14.5594 153.332 1 25 9 290
1987232N07173 1987 62 WP MM ED 1987-08-25 00:00:00 NR 14.6000 152.967 main 1951 1950 O_________O___ jtwc_wp WP121987 14.7000 152.800 25 -1 14.7000 152.800 1 25 10 291
1987232N07173 1987 62 WP MM ED 1987-08-25 03:00:00 NR 14.7845 152.461 main 1968 1966 P_________P___ WP121987 14.9150 152.208 25 -1 14.8885 152.169 1 25 11 290
1987232N07173 1987 62 WP MM ED 1987-08-25 06:00:00 NR 14.9588 151.941 main 1978 1973 O_________P___ jtwc_wp WP121987 15.1000 151.600 25 -1 15.0765 151.524 1 25 10 288
1987232N07173 1987 62 WP MM ED 1987-08-25 09:00:00 NR 15.1145 151.432 main 1976 1974 P_________P___ WP121987 15.2524 151.028 25 -1 15.2260 150.941 1 25 9 285
1987232N07173 1987 62 WP MM ED 1987-08-25 12:00:00 NR 15.2000 151.000 main 1978 1960 O_________O___ jtwc_wp WP121987 15.3000 150.500 25 -1 15.3000 150.500 1 25 7 272
1987232N07173 1987 62 WP MM ED 1987-08-25 15:00:00 NR 15.1430 150.685 main 1960 1945 P_________P___ WP121987 15.1801 149.915 25 -1 15.1841 150.307 1 25 5 250
1987232N07173 1987 62 WP MM ED 1987-08-25 18:00:00 NR 15.0347 150.519 main 1945 1934 O_________P___ jtwc_wp WP121987 15.0000 149.600 25 -1 15.0040 150.257 1 25 3 216
1987232N07173 1987 62 WP MM ED 1987-08-25 21:00:00 NR 14.9382 150.532 main 1934 1934 P_________P___ WP121987 14.8176 149.853 25 -1 14.8469 150.279 1 25 1 141
1987232N07173 1987 62 WP MM ED 1987-08-26 00:00:00 NR 14.9333 150.600 main 1936 1936 O_________O___ jtwc_wp WP121987 14.8000 150.300 25 -1 14.8000 150.300 1 25 2 20
1987232N07173 1987 62 WP MM ED 1987-08-26 03:00:00 NR 15.1383 150.607 main 1958 1958 P_________P___ WP121987 15.1549 150.612 27 -1 15.0101 150.259 1 26 5 351
1987232N07173 1987 62 WP MM ED 1987-08-26 06:00:00 NR 15.4107 150.532 main 1989 1989 O_________P___ jtwc_wp WP121987 15.6000 150.700 30 -1 15.3321 150.197 1 27 6 331
1987232N07173 1987 62 WP MM ED 1987-08-26 09:00:00 NR 15.6302 150.322 main 2008 2008 P_________P___ WP121987 15.8527 150.390 30 -1 15.6881 150.087 1 28 6 307
1987232N07173 1987 62 WP MM ED 1987-08-26 12:00:00 NR 15.8000 150.000 main 2025 2022 O_________O___ jtwc_wp WP121987 16.0000 149.900 30 -1 16.0000 149.900 1 30 7 289
1987232N07173 1987 62 WP MM ED 1987-08-26 15:00:00 NR 15.8674 149.610 main 2030 2026 P_________P___ WP121987 16.0575 149.492 32 -1 16.1171 149.607 1 31 8 279
1987232N07173 1987 62 WP MM ED 1987-08-26 18:00:00 NR 15.9284 149.180 main 2026 2025 O_________P___ jtwc_wp WP121987 16.1000 149.100 35 0 16.1853 149.239 1 32 8 282
1987232N07173 1987 62 WP MM ED 1987-08-26 21:00:00 NR 16.0427 148.770 main 2033 2033 P_________P___ WP121987 16.1974 148.742 35 0 16.2608 148.826 1 33 8 291
1987232N07173 1987 62 WP MM ED 1987-08-27 00:00:00 NR 16.2333 148.367 main 2052 2052 O_________O___ jtwc_wp WP121987 16.4000 148.400 35 0 16.4000 148.400 2 35 9 303
1987232N07173 1987 62 WP MM ED 1987-08-27 03:00:00 NR 16.5459 147.974 main 2084 2084 P_________P___ WP121987 16.7774 148.065 32 -1 16.7105 148.008 2 33 10 313
1987232N07173 1987 62 WP MM ED 1987-08-27 06:00:00 NR 16.9399 147.585 main 2128 2094 O_________P___ jtwc_wp WP121987 17.2000 147.700 30 -1 17.0848 147.609 2 32 11 315
1987232N07173 1987 62 WP MM ED 1987-08-27 09:00:00 NR 17.3212 147.178 main 2094 2038 P_________P___ WP121987 17.5300 147.265 30 -1 17.4667 147.205 2 31 11 314
1987232N07173 1987 62 WP MM ED 1987-08-27 12:00:00 NR 17.6889 146.767 main 2038 1993 O_________O___ jtwc_wp WP121987 17.8000 146.800 30 -1 17.8000 146.800 1 30 11 312
1987232N07173 1987 62 WP MM ED 1987-08-27 15:00:00 NR 18.0269 146.351 main 1993 1956 P_________P___ WP121987 18.0300 146.335 30 -1 18.0239 146.367 1 28 10 302
1987232N07173 1987 62 WP MM ED 1987-08-27 18:00:00 NR 18.1951 145.920 main 1956 1934 O_________P___ jtwc_wp WP121987 18.2000 145.900 30 -1 18.1902 145.940 1 27 8 290
1987232N07173 1987 62 WP MM ED 1987-08-27 21:00:00 NR 18.3132 145.527 main 1934 1915 P_________P___ WP121987 18.3149 145.512 27 -1 18.3114 145.542 1 26 7 287
1987232N07173 1987 62 WP MM ED 1987-08-28 00:00:00 NR 18.4000 145.200 main 1915 1898 O_________O___ jtwc_wp WP121987 18.4000 145.200 25 -1 18.4000 145.200 1 25 6 289
1987232N07173 1987 62 WP MM ED 1987-08-28 03:00:00 NR 18.5014 144.961 main 1898 1879 P_________P___ WP121987 18.5149 144.977 25 -1 18.4879 144.945 1 25 4 293
1987232N07173 1987 62 WP MM ED 1987-08-28 06:00:00 NR 18.5736 144.773 main 1879 1870 O_________P___ jtwc_wp WP121987 18.6000 144.800 25 -1 18.5472 144.745 1 25 4 285
1987232N07173 1987 62 WP MM ED 1987-08-28 09:00:00 NR 18.5990 144.586 main 1870 1860 P_________P___ WP121987 18.6150 144.600 25 -1 18.5829 144.573 1 25 4 274
1987232N07173 1987 62 WP MM ED 1987-08-28 12:00:00 NR 18.6000 144.400 main 1860 1851 O_________O___ jtwc_wp WP121987 18.6000 144.400 25 -1 18.6000 144.400 1 25 4 270
1987232N07173 1987 62 WP MM ED 1987-08-28 15:00:00 NR 18.5993 144.203 main 1851 1842 P_________P___ WP121987 18.5950 144.200 22 -1 18.6035 144.207 1 22 4 270
1987232N07173 1987 62 WP MM ED 1987-08-28 18:00:00 NR 18.6000 144.000 main 1842 O_________O___ jtwc_wp WP121987 18.6000 144.000 20 -1 18.6000 144.000 1 20 4 270

デジタル台風データ・検索

IBTrACS Databaseについて

本データベースは、米国NOAAが公開する1842年以降の世界の熱帯低気圧のベストトラックデータアーカイブInternational Best Track Archive for Climate Stewardship (IBTrACS)を、ウェブで閲覧しやすい形式に変換したものです。

最終更新日:2021-12-06